Time;durP1;ratioP1;P1;durP2;ratioP2;P2;SDS_P1;SDS_P2;PMS_P1;PMS_P2;Temp;Humidity;BMP_temperature;BMP_pressure;BME280_temperature;BME280_humidity;BME280_pressure;Samples;Min_cycle;Max_cycle;Signal;HPM_P1;HPM_P2
2023/12/04 00:00:15;;;;;;;13.15;10.77;;;;;;;;;;522789;28;1001;-73
2023/12/04 00:00:30;;;;;;;13.60;11.07;;;;;;;;;;524223;28;768;-73
2023/12/04 00:00:45;;;;;;;13.77;11.07;;;;;;;;;;524064;28;1245;-72
2023/12/04 00:01:01;;;;;;;12.43;10.83;;;;;;;;;;521913;28;910;-72
2023/12/04 00:01:17;;;;;;;12.48;10.75;;;;;;;;;;521924;28;1100;-73
2023/12/04 00:01:32;;;;;;;12.63;10.57;;;;;;;;;;520721;28;1835;-73
2023/12/04 00:01:48;;;;;;;12.70;10.67;;;;;;;;;;521768;28;911;-73
2023/12/04 00:02:03;;;;;;;13.35;11.05;;;;;;;;;;521757;28;1056;-73
2023/12/04 00:02:19;;;;;;;13.73;11.30;;;;;;;;;;522054;28;815;-73
2023/12/04 00:02:34;;;;;;;14.40;11.70;;;;;;;;;;521753;28;937;-73
2023/12/04 00:02:49;;;;;;;14.87;11.93;;;;;;;;;;522367;28;842;-73
2023/12/04 00:03:04;;;;;;;13.70;11.20;;;;;;;;;;524136;28;874;-73
2023/12/04 00:03:20;;;;;;;12.65;10.70;;;;;;;;;;524208;28;974;-73
2023/12/04 00:03:35;;;;;;;13.47;10.60;;;;;;;;;;524097;28;921;-73
2023/12/04 00:03:50;;;;;;;13.97;10.70;;;;;;;;;;523545;28;815;-72
2023/12/04 00:04:06;;;;;;;12.88;10.75;;;;;;;;;;524167;28;961;-73
2023/12/04 00:04:21;;;;;;;12.97;10.93;;;;;;;;;;521858;28;1265;-73
2023/12/04 00:04:36;;;;;;;13.03;11.00;;;;;;;;;;521955;28;1097;-73
2023/12/04 00:04:52;;;;;;;12.75;10.75;;;;;;;;;;523029;28;910;-72
2023/12/04 00:05:07;;;;;;;12.83;10.47;;;;;;;;;;524192;28;1024;-73
2023/12/04 00:05:22;;;;;;;12.90;10.68;;;;;;;;;;524176;28;810;-73
2023/12/04 00:05:38;;;;;;;13.23;10.83;;;;;;;;;;521469;28;1870;-73
2023/12/04 00:05:53;;;;;;;13.23;10.77;;;;;;;;;;521652;28;945;-73
2023/12/04 00:06:11;;;;;;;13.57;10.97;;;;;;;;;;522172;28;891;-73
2023/12/04 00:06:26;;;;;;;13.55;11.07;;;;;;;;;;524225;28;870;-73
2023/12/04 00:06:42;;;;;;;13.35;11.38;;;;;;;;;;524028;28;1028;-73
2023/12/04 00:06:57;;;;;;;14.00;11.53;;;;;;;;;;524309;28;1177;-73
2023/12/04 00:07:13;;;;;;;13.48;10.93;;;;;;;;;;524086;28;999;-73
2023/12/04 00:07:28;;;;;;;12.93;10.90;;;;;;;;;;524209;28;813;-72
2023/12/04 00:07:43;;;;;;;12.77;10.93;;;;;;;;;;524027;28;1036;-72
2023/12/04 00:07:59;;;;;;;13.27;10.98;;;;;;;;;;524062;28;857;-73
2023/12/04 00:08:14;;;;;;;13.63;11.20;;;;;;;;;;524200;28;767;-73
2023/12/04 00:08:30;;;;;;;13.98;11.40;;;;;;;;;;524261;28;834;-73
2023/12/04 00:08:45;;;;;;;14.00;11.40;;;;;;;;;;524199;28;1223;-73
2023/12/04 00:09:00;;;;;;;13.50;11.20;;;;;;;;;;523410;28;917;-73
2023/12/04 00:09:15;;;;;;;13.38;11.15;;;;;;;;;;524229;28;913;-73
2023/12/04 00:09:31;;;;;;;13.40;11.30;;;;;;;;;;524109;28;1103;-73
2023/12/04 00:09:46;;;;;;;13.63;11.30;;;;;;;;;;521930;28;1285;-73
2023/12/04 00:10:01;;;;;;;13.23;11.02;;;;;;;;;;521905;28;937;-73
2023/12/04 00:10:17;;;;;;;13.40;10.93;;;;;;;;;;523614;28;1111;-73
2023/12/04 00:10:32;;;;;;;13.55;10.95;;;;;;;;;;523598;28;1103;-73
2023/12/04 00:10:48;;;;;;;13.47;11.10;;;;;;;;;;521890;28;1053;-73
2023/12/04 00:11:06;;;;;;;13.65;11.00;;;;;;;;;;522036;28;894;-72
2023/12/04 00:11:22;;;;;;;13.25;10.93;;;;;;;;;;522065;28;873;-73
2023/12/04 00:11:37;;;;;;;13.00;10.87;;;;;;;;;;522426;28;1038;-73
2023/12/04 00:11:52;;;;;;;12.82;10.68;;;;;;;;;;524206;28;914;-73
2023/12/04 00:12:08;;;;;;;12.73;10.87;;;;;;;;;;521769;28;799;-73
2023/12/04 00:12:23;;;;;;;13.30;11.27;;;;;;;;;;520834;28;1857;-73
2023/12/04 00:12:38;;;;;;;13.70;11.27;;;;;;;;;;521861;28;1060;-73
2023/12/04 00:12:54;;;;;;;13.50;11.03;;;;;;;;;;521845;28;905;-73
2023/12/04 00:13:09;;;;;;;13.67;11.10;;;;;;;;;;521971;28;1032;-73
2023/12/04 00:13:24;;;;;;;13.35;11.13;;;;;;;;;;521967;28;1001;-73
2023/12/04 00:13:39;;;;;;;13.17;11.07;;;;;;;;;;521853;28;1065;-73
2023/12/04 00:13:55;;;;;;;13.57;11.20;;;;;;;;;;521254;28;989;-73
2023/12/04 00:14:10;;;;;;;13.77;11.15;;;;;;;;;;522056;28;1009;-73
2023/12/04 00:14:25;;;;;;;13.37;10.87;;;;;;;;;;522800;28;1296;-72
2023/12/04 00:14:41;;;;;;;13.70;11.20;;;;;;;;;;523341;28;1514;-73
2023/12/04 00:14:56;;;;;;;14.00;11.55;;;;;;;;;;522032;28;839;-73
2023/12/04 00:15:11;;;;;;;13.23;11.00;;;;;;;;;;522137;28;854;-73
2023/12/04 00:15:27;;;;;;;12.80;10.70;;;;;;;;;;520557;28;1062;-73
2023/12/04 00:15:42;;;;;;;12.30;10.63;;;;;;;;;;521902;28;1033;-73
2023/12/04 00:15:57;;;;;;;12.07;10.50;;;;;;;;;;519827;28;823;-73
2023/12/04 00:16:13;;;;;;;12.50;10.60;;;;;;;;;;519832;28;938;-73
2023/12/04 00:16:28;;;;;;;14.65;10.45;;;;;;;;;;519950;28;823;-73
2023/12/04 00:16:43;;;;;;;16.10;10.00;;;;;;;;;;519737;28;902;-73
2023/12/04 00:16:58;;;;;;;13.57;10.17;;;;;;;;;;519840;28;902;-73
2023/12/04 00:17:14;;;;;;;13.20;10.52;;;;;;;;;;520092;28;875;-73
2023/12/04 00:17:30;;;;;;;13.70;10.63;;;;;;;;;;521771;28;1427;-73
2023/12/04 00:17:45;;;;;;;13.65;10.90;;;;;;;;;;522146;28;1160;-73
2023/12/04 00:18:00;;;;;;;13.87;10.97;;;;;;;;;;523954;28;822;-73
2023/12/04 00:18:16;;;;;;;13.93;10.98;;;;;;;;;;524043;28;894;-73
2023/12/04 00:18:31;;;;;;;13.63;11.03;;;;;;;;;;523443;28;1044;-73
2023/12/04 00:18:46;;;;;;;13.63;11.10;;;;;;;;;;523901;28;918;-73
2023/12/04 00:19:02;;;;;;;13.52;11.10;;;;;;;;;;523561;28;854;-73
2023/12/04 00:19:17;;;;;;;12.50;10.70;;;;;;;;;;524079;28;1160;-73
2023/12/04 00:19:32;;;;;;;12.27;10.63;;;;;;;;;;524075;28;1045;-72
2023/12/04 00:19:48;;;;;;;12.88;10.93;;;;;;;;;;524249;28;917;-72
2023/12/04 00:20:03;;;;;;;12.97;10.83;;;;;;;;;;524174;28;922;-73
2023/12/04 00:20:19;;;;;;;13.27;10.77;;;;;;;;;;524159;28;878;-73
2023/12/04 00:20:34;;;;;;;13.47;10.90;;;;;;;;;;523454;28;1873;-73
2023/12/04 00:20:49;;;;;;;13.60;11.03;;;;;;;;;;522302;28;792;-73
2023/12/04 00:21:05;;;;;;;13.63;11.27;;;;;;;;;;523966;28;819;-73
2023/12/04 00:21:20;;;;;;;13.40;11.27;;;;;;;;;;522209;28;902;-73
2023/12/04 00:21:36;;;;;;;13.25;10.82;;;;;;;;;;522706;28;1013;-73
2023/12/04 00:21:51;;;;;;;13.23;10.90;;;;;;;;;;524130;28;1076;-73
2023/12/04 00:22:06;;;;;;;13.47;11.20;;;;;;;;;;523908;28;1175;-73
2023/12/04 00:22:23;;;;;;;14.02;11.40;;;;;;;;;;524235;28;949;-73
2023/12/04 00:22:39;;;;;;;13.68;11.40;;;;;;;;;;523825;28;1103;-72
2023/12/04 00:22:54;;;;;;;13.13;11.10;;;;;;;;;;524041;28;938;-73
2023/12/04 00:23:09;;;;;;;13.18;11.07;;;;;;;;;;524184;28;819;-73
2023/12/04 00:23:25;;;;;;;13.57;11.10;;;;;;;;;;524290;28;811;-73
2023/12/04 00:23:40;;;;;;;13.90;10.83;;;;;;;;;;523992;28;1045;-73
2023/12/04 00:23:55;;;;;;;13.55;10.73;;;;;;;;;;523677;28;1001;-73
2023/12/04 00:24:11;;;;;;;13.10;10.67;;;;;;;;;;524197;28;823;-73
2023/12/04 00:24:26;;;;;;;12.87;10.53;;;;;;;;;;524258;28;854;-72
2023/12/04 00:24:41;;;;;;;12.63;10.70;;;;;;;;;;523914;28;996;-73
2023/12/04 00:24:56;;;;;;;12.83;10.87;;;;;;;;;;524300;28;802;-73
2023/12/04 00:25:12;;;;;;;13.30;10.90;;;;;;;;;;524189;28;850;-72
2023/12/04 00:25:27;;;;;;;13.43;11.13;;;;;;;;;;524199;28;795;-73
2023/12/04 00:25:43;;;;;;;13.13;10.93;;;;;;;;;;524019;28;1083;-72
2023/12/04 00:25:58;;;;;;;12.90;10.63;;;;;;;;;;523195;28;1679;-72
2023/12/04 00:26:14;;;;;;;13.43;10.87;;;;;;;;;;523983;28;1960;-72
2023/12/04 00:26:29;;;;;;;13.63;10.90;;;;;;;;;;522853;28;708;-73
2023/12/04 00:26:45;;;;;;;12.17;10.43;;;;;;;;;;523809;28;1112;-73
2023/12/04 00:27:00;;;;;;;12.68;10.52;;;;;;;;;;524112;28;890;-73
2023/12/04 00:27:15;;;;;;;13.87;10.93;;;;;;;;;;521691;28;2290;-73
2023/12/04 00:27:30;;;;;;;13.97;11.30;;;;;;;;;;522940;28;2598;-73
2023/12/04 00:27:46;;;;;;;13.47;11.30;;;;;;;;;;522110;28;917;-73
2023/12/04 00:28:01;;;;;;;13.02;10.80;;;;;;;;;;522545;28;835;-73
2023/12/04 00:28:16;;;;;;;12.93;10.90;;;;;;;;;;524186;28;739;-73
2023/12/04 00:28:32;;;;;;;13.63;11.13;;;;;;;;;;523898;28;1036;-73
2023/12/04 00:28:47;;;;;;;13.52;10.98;;;;;;;;;;524010;28;913;-73
2023/12/04 00:29:02;;;;;;;13.00;10.97;;;;;;;;;;523657;28;874;-73
2023/12/04 00:29:17;;;;;;;12.83;10.70;;;;;;;;;;524150;28;929;-73
2023/12/04 00:29:33;;;;;;;12.40;10.40;;;;;;;;;;523964;28;1048;-73
2023/12/04 00:29:48;;;;;;;13.07;10.77;;;;;;;;;;524026;28;889;-73
2023/12/04 00:30:04;;;;;;;13.63;11.00;;;;;;;;;;524004;28;918;-73
2023/12/04 00:30:19;;;;;;;12.82;10.73;;;;;;;;;;522286;28;2213;-72
2023/12/04 00:30:35;;;;;;;12.73;10.65;;;;;;;;;;523908;28;996;-73
2023/12/04 00:30:50;;;;;;;13.13;10.70;;;;;;;;;;523918;28;933;-73
2023/12/04 00:31:06;;;;;;;13.40;10.67;;;;;;;;;;524156;28;1021;-73
2023/12/04 00:31:21;;;;;;;13.02;10.32;;;;;;;;;;524211;28;949;-73
2023/12/04 00:31:36;;;;;;;13.07;10.60;;;;;;;;;;523938;28;1036;-73
2023/12/04 00:31:52;;;;;;;12.70;10.70;;;;;;;;;;524161;28;949;-73
2023/12/04 00:32:07;;;;;;;11.63;10.10;;;;;;;;;;524093;28;906;-73
2023/12/04 00:32:23;;;;;;;13.10;10.90;;;;;;;;;;523761;28;919;-73
2023/12/04 00:32:38;;;;;;;13.73;11.30;;;;;;;;;;523849;28;1139;-73
2023/12/04 00:32:53;;;;;;;12.60;10.57;;;;;;;;;;523926;28;847;-73
2023/12/04 00:33:09;;;;;;;12.75;10.40;;;;;;;;;;524041;28;981;-73
2023/12/04 00:33:24;;;;;;;13.80;10.97;;;;;;;;;;523876;28;830;-73
2023/12/04 00:33:39;;;;;;;13.47;11.03;;;;;;;;;;523934;28;1166;-73
2023/12/04 00:33:55;;;;;;;12.50;10.35;;;;;;;;;;523333;28;870;-73
2023/12/04 00:34:12;;;;;;;12.73;10.30;;;;;;;;;;524146;28;795;-73
2023/12/04 00:34:27;;;;;;;13.00;10.68;;;;;;;;;;524255;28;877;-72
2023/12/04 00:34:42;;;;;;;12.90;10.70;;;;;;;;;;523982;28;1009;-73
2023/12/04 00:34:57;;;;;;;12.90;10.63;;;;;;;;;;524133;28;902;-73
2023/12/04 00:35:13;;;;;;;13.23;10.77;;;;;;;;;;523823;28;941;-73
2023/12/04 00:35:28;;;;;;;12.50;10.50;;;;;;;;;;524189;28;969;-73
2023/12/04 00:35:44;;;;;;;12.80;10.40;;;;;;;;;;523746;28;1469;-73
2023/12/04 00:35:59;;;;;;;13.87;10.97;;;;;;;;;;523857;28;985;-73
2023/12/04 00:36:14;;;;;;;14.07;11.27;;;;;;;;;;523985;28;838;-72
2023/12/04 00:36:29;;;;;;;13.15;10.95;;;;;;;;;;522498;28;1844;-72
2023/12/04 00:36:45;;;;;;;12.70;10.43;;;;;;;;;;523721;28;1044;-72
2023/12/04 00:37:00;;;;;;;13.20;10.77;;;;;;;;;;523869;28;1189;-71
2023/12/04 00:37:15;;;;;;;13.15;11.05;;;;;;;;;;523718;28;1256;-72
2023/12/04 00:37:30;;;;;;;14.23;11.27;;;;;;;;;;523781;28;1227;-72
2023/12/04 00:37:46;;;;;;;14.47;11.13;;;;;;;;;;524116;28;862;-72
2023/12/04 00:38:02;;;;;;;14.00;10.77;;;;;;;;;;524138;28;787;-72
2023/12/04 00:38:17;;;;;;;13.47;10.73;;;;;;;;;;524195;28;795;-72
2023/12/04 00:38:32;;;;;;;13.27;10.82;;;;;;;;;;523851;28;994;-72
2023/12/04 00:38:47;;;;;;;13.17;10.70;;;;;;;;;;523966;28;1194;-71
2023/12/04 00:39:03;;;;;;;12.83;10.53;;;;;;;;;;523775;28;870;-72
2023/12/04 00:39:19;;;;;;;13.05;10.77;;;;;;;;;;523915;28;886;-71
2023/12/04 00:39:34;;;;;;;13.55;11.07;;;;;;;;;;524083;28;1044;-72
2023/12/04 00:39:49;;;;;;;13.47;10.97;;;;;;;;;;522970;28;1913;-72
2023/12/04 00:40:07;;;;;;;13.40;11.03;;;;;;;;;;523065;28;918;-72
2023/12/04 00:40:22;;;;;;;13.73;11.07;;;;;;;;;;522072;28;1613;-72
2023/12/04 00:40:37;;;;;;;13.73;10.87;;;;;;;;;;522414;28;1619;-72
2023/12/04 00:40:53;;;;;;;13.00;10.80;;;;;;;;;;524120;28;1700;-72
2023/12/04 00:41:08;;;;;;;12.98;10.65;;;;;;;;;;522996;28;1738;-72
2023/12/04 00:41:23;;;;;;;13.17;10.70;;;;;;;;;;521745;28;891;-72
2023/12/04 00:41:38;;;;;;;13.20;10.80;;;;;;;;;;522878;28;973;-72
2023/12/04 00:41:54;;;;;;;13.13;11.07;;;;;;;;;;524258;28;814;-72
2023/12/04 00:42:09;;;;;;;13.52;11.10;;;;;;;;;;524211;28;830;-72
2023/12/04 00:42:24;;;;;;;13.60;10.57;;;;;;;;;;524146;28;787;-71
2023/12/04 00:42:40;;;;;;;13.13;10.57;;;;;;;;;;524012;28;972;-72
2023/12/04 00:42:55;;;;;;;13.07;10.93;;;;;;;;;;523107;28;1801;-72
2023/12/04 00:43:10;;;;;;;13.47;11.37;;;;;;;;;;523645;28;1044;-72
2023/12/04 00:43:26;;;;;;;13.33;11.33;;;;;;;;;;523861;28;1163;-72
2023/12/04 00:43:41;;;;;;;13.32;10.95;;;;;;;;;;523943;28;1124;-71
2023/12/04 00:43:57;;;;;;;12.90;10.63;;;;;;;;;;523264;28;885;-71
2023/12/04 00:44:12;;;;;;;12.55;10.68;;;;;;;;;;522104;28;949;-72
2023/12/04 00:44:27;;;;;;;12.93;10.73;;;;;;;;;;521023;28;1328;-72
2023/12/04 00:44:43;;;;;;;12.82;10.32;;;;;;;;;;521753;28;1219;-72
2023/12/04 00:44:58;;;;;;;13.23;10.40;;;;;;;;;;521972;28;823;-72
2023/12/04 00:45:13;;;;;;;13.47;10.93;;;;;;;;;;521884;28;887;-72
2023/12/04 00:45:29;;;;;;;13.18;10.95;;;;;;;;;;521819;28;886;-72
2023/12/04 00:45:44;;;;;;;12.53;10.53;;;;;;;;;;521711;28;1108;-72
2023/12/04 00:45:59;;;;;;;12.27;10.43;;;;;;;;;;522039;28;792;-72
2023/12/04 00:46:14;;;;;;;12.37;10.10;;;;;;;;;;523550;28;1987;-72
2023/12/04 00:46:30;;;;;;;13.02;10.45;;;;;;;;;;522048;28;1603;-72
2023/12/04 00:46:45;;;;;;;13.20;10.83;;;;;;;;;;523986;28;953;-72
2023/12/04 00:47:00;;;;;;;13.60;10.93;;;;;;;;;;524239;28;796;-72
2023/12/04 00:47:16;;;;;;;13.20;10.80;;;;;;;;;;524133;28;839;-72
2023/12/04 00:47:31;;;;;;;12.27;10.40;;;;;;;;;;522164;28;1516;-71
2023/12/04 00:47:46;;;;;;;12.90;10.53;;;;;;;;;;521891;28;870;-72
2023/12/04 00:48:02;;;;;;;13.15;10.57;;;;;;;;;;521919;28;957;-72
2023/12/04 00:48:17;;;;;;;13.40;10.98;;;;;;;;;;521904;28;818;-72
2023/12/04 00:48:33;;;;;;;13.87;11.30;;;;;;;;;;521716;28;1026;-71
2023/12/04 00:48:49;;;;;;;13.60;11.20;;;;;;;;;;521754;28;961;-72
2023/12/04 00:49:04;;;;;;;13.10;10.90;;;;;;;;;;521646;28;794;-72
2023/12/04 00:49:19;;;;;;;12.90;10.75;;;;;;;;;;522242;28;1012;-72
2023/12/04 00:49:36;;;;;;;13.87;11.17;;;;;;;;;;523872;28;1135;-72
2023/12/04 00:49:51;;;;;;;13.57;10.85;;;;;;;;;;524168;28;1246;-72
2023/12/04 00:50:07;;;;;;;12.90;10.90;;;;;;;;;;524171;28;1314;-72
2023/12/04 00:50:22;;;;;;;13.18;11.00;;;;;;;;;;524059;28;1318;-72
2023/12/04 00:50:38;;;;;;;13.07;10.63;;;;;;;;;;524047;28;1064;-71
2023/12/04 00:50:54;;;;;;;14.00;10.90;;;;;;;;;;523274;28;1967;-72
2023/12/04 00:51:09;;;;;;;14.13;11.23;;;;;;;;;;523613;28;1108;-71
2023/12/04 00:51:26;;;;;;;13.13;11.30;;;;;;;;;;524170;28;755;-72
2023/12/04 00:51:41;;;;;;;12.63;10.90;;;;;;;;;;523812;28;1159;-72
2023/12/04 00:51:56;;;;;;;13.07;10.57;;;;;;;;;;523871;28;806;-71
2023/12/04 00:52:12;;;;;;;13.77;10.80;;;;;;;;;;524291;28;1445;-72
2023/12/04 00:52:27;;;;;;;13.97;11.13;;;;;;;;;;525772;28;1409;-72
2023/12/04 00:52:42;;;;;;;13.82;11.25;;;;;;;;;;524666;28;1166;-72
2023/12/04 00:52:57;;;;;;;13.13;10.80;;;;;;;;;;521994;28;1064;-72
2023/12/04 00:53:13;;;;;;;13.97;11.03;;;;;;;;;;523991;28;859;-72
2023/12/04 00:53:28;;;;;;;14.30;11.30;;;;;;;;;;524026;28;1048;-72
2023/12/04 00:53:43;;;;;;;13.60;11.10;;;;;;;;;;523904;28;1108;-72
2023/12/04 00:53:59;;;;;;;13.60;11.07;;;;;;;;;;523522;28;890;-72
2023/12/04 00:54:14;;;;;;;12.85;10.50;;;;;;;;;;524118;28;827;-71
2023/12/04 00:54:29;;;;;;;12.87;10.57;;;;;;;;;;524194;28;890;-72
2023/12/04 00:54:44;;;;;;;13.40;11.07;;;;;;;;;;524112;28;1219;-72
2023/12/04 00:55:00;;;;;;;13.00;10.80;;;;;;;;;;524135;28;863;-72
2023/12/04 00:55:15;;;;;;;12.65;10.60;;;;;;;;;;523999;28;890;-72
2023/12/04 00:55:30;;;;;;;13.57;10.87;;;;;;;;;;524060;28;1115;-72
2023/12/04 00:55:46;;;;;;;14.10;11.00;;;;;;;;;;524041;28;957;-72
2023/12/04 00:56:01;;;;;;;13.00;10.82;;;;;;;;;;523843;28;1112;-72
2023/12/04 00:56:16;;;;;;;12.90;10.97;;;;;;;;;;523997;28;997;-71
2023/12/04 00:56:32;;;;;;;13.57;11.23;;;;;;;;;;524028;28;1108;-72
2023/12/04 00:56:47;;;;;;;13.57;11.07;;;;;;;;;;523992;28;961;-72
2023/12/04 00:57:02;;;;;;;14.03;11.23;;;;;;;;;;524162;28;946;-72
2023/12/04 00:57:18;;;;;;;14.10;11.43;;;;;;;;;;524022;28;883;-72
2023/12/04 00:57:33;;;;;;;13.15;10.85;;;;;;;;;;524083;28;1127;-72
2023/12/04 00:57:48;;;;;;;12.57;10.70;;;;;;;;;;524127;28;814;-72
2023/12/04 00:58:03;;;;;;;12.87;10.90;;;;;;;;;;523975;28;858;-72
2023/12/04 00:58:19;;;;;;;13.32;10.90;;;;;;;;;;524099;28;985;-72
2023/12/04 00:58:34;;;;;;;13.30;11.07;;;;;;;;;;524018;28;1029;-72
2023/12/04 00:58:49;;;;;;;13.03;11.00;;;;;;;;;;523627;28;874;-72
2023/12/04 00:59:06;;;;;;;12.90;10.73;;;;;;;;;;522670;28;1784;-72
2023/12/04 00:59:21;;;;;;;13.02;11.02;;;;;;;;;;524088;28;961;-72
2023/12/04 00:59:37;;;;;;;13.07;11.10;;;;;;;;;;523908;28;918;-72
2023/12/04 00:59:52;;;;;;;13.07;10.87;;;;;;;;;;524187;28;993;-72
2023/12/04 01:00:08;;;;;;;13.13;10.83;;;;;;;;;;523853;28;818;-72
2023/12/04 01:00:23;;;;;;;13.27;10.85;;;;;;;;;;521642;28;1137;-71
2023/12/04 01:00:38;;;;;;;13.88;11.02;;;;;;;;;;521705;28;1056;-72
2023/12/04 01:00:55;;;;;;;13.63;11.20;;;;;;;;;;521964;28;1064;-72
2023/12/04 01:01:10;;;;;;;13.52;11.20;;;;;;;;;;521950;28;1116;-72
2023/12/04 01:01:25;;;;;;;14.10;11.40;;;;;;;;;;521779;28;907;-72
2023/12/04 01:01:41;;;;;;;13.55;11.25;;;;;;;;;;521776;28;1111;-72
2023/12/04 01:01:56;;;;;;;13.40;10.93;;;;;;;;;;521954;28;804;-71
2023/12/04 01:02:11;;;;;;;13.43;10.87;;;;;;;;;;521778;28;1084;-72
2023/12/04 01:02:27;;;;;;;13.13;10.75;;;;;;;;;;524146;28;890;-72
2023/12/04 01:02:42;;;;;;;13.30;10.93;;;;;;;;;;523846;28;1096;-72
2023/12/04 01:02:58;;;;;;;13.07;10.98;;;;;;;;;;524089;28;827;-72
2023/12/04 01:03:13;;;;;;;13.30;10.97;;;;;;;;;;524109;28;958;-72
2023/12/04 01:03:28;;;;;;;13.43;11.00;;;;;;;;;;524064;28;989;-72
2023/12/04 01:03:43;;;;;;;13.05;10.65;;;;;;;;;;522330;28;1817;-72
2023/12/04 01:03:59;;;;;;;12.70;10.40;;;;;;;;;;523471;28;850;-72
2023/12/04 01:04:14;;;;;;;12.50;10.35;;;;;;;;;;523903;28;898;-71
2023/12/04 01:04:31;;;;;;;13.20;10.83;;;;;;;;;;524156;28;914;-72
2023/12/04 01:04:46;;;;;;;13.60;10.93;;;;;;;;;;523967;28;1030;-72
2023/12/04 01:05:01;;;;;;;12.73;10.55;;;;;;;;;;524098;28;1005;-71
2023/12/04 01:05:16;;;;;;;13.03;10.83;;;;;;;;;;524102;28;983;-72
2023/12/04 01:05:32;;;;;;;13.60;10.93;;;;;;;;;;523925;28;1029;-71
2023/12/04 01:05:47;;;;;;;13.10;10.70;;;;;;;;;;524017;28;846;-72
2023/12/04 01:06:03;;;;;;;12.80;10.80;;;;;;;;;;524030;28;788;-72
2023/12/04 01:06:22;;;;;;;12.40;10.60;;;;;;;;;;523739;28;1967;-72
2023/12/04 01:06:37;;;;;;;12.35;10.38;;;;;;;;;;523829;28;1036;-72
2023/12/04 01:06:53;;;;;;;12.80;10.83;;;;;;;;;;524211;28;826;-72
2023/12/04 01:07:08;;;;;;;13.45;11.10;;;;;;;;;;524187;28;894;-72
2023/12/04 01:07:23;;;;;;;14.00;11.03;;;;;;;;;;524055;28;945;-71
2023/12/04 01:07:39;;;;;;;14.37;11.00;;;;;;;;;;523991;28;1142;-71
2023/12/04 01:07:54;;;;;;;14.07;10.90;;;;;;;;;;524120;28;985;-72
2023/12/04 01:08:09;;;;;;;12.70;10.47;;;;;;;;;;523994;28;854;-71
2023/12/04 01:08:24;;;;;;;13.53;10.77;;;;;;;;;;523942;28;870;-72
2023/12/04 01:08:40;;;;;;;14.27;11.07;;;;;;;;;;524005;28;1020;-72
2023/12/04 01:08:56;;;;;;;13.50;10.95;;;;;;;;;;523529;28;771;-72
2023/12/04 01:09:11;;;;;;;12.80;10.68;;;;;;;;;;524110;28;831;-72
2023/12/04 01:09:26;;;;;;;13.57;10.93;;;;;;;;;;524086;28;989;-72
2023/12/04 01:09:42;;;;;;;13.83;11.03;;;;;;;;;;523946;28;1088;-72
2023/12/04 01:09:57;;;;;;;13.05;10.93;;;;;;;;;;524001;28;1165;-71
2023/12/04 01:10:12;;;;;;;13.47;10.93;;;;;;;;;;525193;28;1205;-72
2023/12/04 01:10:28;;;;;;;13.23;10.87;;;;;;;;;;525992;28;898;-71
2023/12/04 01:10:44;;;;;;;13.13;11.02;;;;;;;;;;524120;28;1027;-72
2023/12/04 01:10:59;;;;;;;12.95;10.70;;;;;;;;;;524224;28;867;-72
2023/12/04 01:11:15;;;;;;;12.23;10.47;;;;;;;;;;524091;28;819;-72
2023/12/04 01:11:31;;;;;;;13.68;11.10;;;;;;;;;;522602;28;1650;-72
2023/12/04 01:11:46;;;;;;;14.07;11.23;;;;;;;;;;523905;28;941;-72
2023/12/04 01:12:02;;;;;;;13.67;11.10;;;;;;;;;;521826;28;1048;-72
2023/12/04 01:12:17;;;;;;;13.65;11.20;;;;;;;;;;521816;28;945;-72
2023/12/04 01:12:33;;;;;;;13.65;11.20;;;;;;;;;;521310;28;1126;-71
2023/12/04 01:12:48;;;;;;;13.90;11.33;;;;;;;;;;521859;28;973;-72
2023/12/04 01:13:03;;;;;;;13.23;11.17;;;;;;;;;;521822;28;807;-71
2023/12/04 01:13:19;;;;;;;13.00;11.13;;;;;;;;;;521851;28;1202;-72
2023/12/04 01:13:34;;;;;;;13.40;11.17;;;;;;;;;;521632;28;1061;-72
2023/12/04 01:13:49;;;;;;;14.23;11.03;;;;;;;;;;521645;28;970;-72
2023/12/04 01:14:05;;;;;;;14.38;11.30;;;;;;;;;;523814;28;807;-72
2023/12/04 01:14:20;;;;;;;13.77;11.47;;;;;;;;;;523787;28;1378;-72
2023/12/04 01:14:38;;;;;;;13.65;11.05;;;;;;;;;;523887;28;1084;-72
2023/12/04 01:14:53;;;;;;;14.10;11.18;;;;;;;;;;524044;28;1066;-72
2023/12/04 01:15:09;;;;;;;14.27;11.30;;;;;;;;;;524170;28;913;-72
2023/12/04 01:15:24;;;;;;;14.03;11.13;;;;;;;;;;524067;28;831;-71
2023/12/04 01:15:40;;;;;;;14.13;11.18;;;;;;;;;;523950;28;1087;-71
2023/12/04 01:15:55;;;;;;;14.03;11.17;;;;;;;;;;523861;28;894;-72
2023/12/04 01:16:11;;;;;;;13.73;11.13;;;;;;;;;;524172;28;843;-72
2023/12/04 01:16:26;;;;;;;13.50;11.10;;;;;;;;;;524031;28;867;-72
2023/12/04 01:16:41;;;;;;;13.00;11.03;;;;;;;;;;522392;28;1707;-72
2023/12/04 01:16:57;;;;;;;13.77;11.18;;;;;;;;;;524003;28;898;-72
2023/12/04 01:17:12;;;;;;;14.60;11.20;;;;;;;;;;524117;28;879;-71
2023/12/04 01:17:27;;;;;;;14.68;11.23;;;;;;;;;;523949;28;936;-72
2023/12/04 01:17:43;;;;;;;14.90;11.60;;;;;;;;;;523829;28;1009;-72
2023/12/04 01:18:00;;;;;;;13.80;11.30;;;;;;;;;;524133;28;985;-72
2023/12/04 01:18:15;;;;;;;13.68;11.30;;;;;;;;;;524180;28;854;-72
2023/12/04 01:18:30;;;;;;;13.33;11.33;;;;;;;;;;524028;28;1095;-72
2023/12/04 01:18:46;;;;;;;12.90;11.00;;;;;;;;;;523824;28;827;-72
2023/12/04 01:19:01;;;;;;;13.00;10.83;;;;;;;;;;523421;28;989;-72
2023/12/04 01:19:16;;;;;;;13.98;11.30;;;;;;;;;;524038;28;1045;-72
2023/12/04 01:19:32;;;;;;;14.40;11.37;;;;;;;;;;523985;28;1041;-72
2023/12/04 01:19:47;;;;;;;13.63;10.93;;;;;;;;;;523909;28;1143;-72
2023/12/04 01:20:03;;;;;;;13.77;10.90;;;;;;;;;;524136;28;1142;-71
2023/12/04 01:20:18;;;;;;;13.97;11.00;;;;;;;;;;526211;28;1020;-72
2023/12/04 01:20:33;;;;;;;13.27;11.00;;;;;;;;;;523227;28;1614;-72
2023/12/04 01:20:49;;;;;;;14.17;11.30;;;;;;;;;;521821;28;827;-72
2023/12/04 01:21:04;;;;;;;14.47;11.43;;;;;;;;;;521740;28;886;-72
2023/12/04 01:21:19;;;;;;;13.73;11.27;;;;;;;;;;521824;28;894;-72
2023/12/04 01:21:35;;;;;;;14.23;11.60;;;;;;;;;;521769;28;1053;-72
2023/12/04 01:21:50;;;;;;;13.77;11.35;;;;;;;;;;521908;28;882;-72
2023/12/04 01:22:05;;;;;;;13.37;11.03;;;;;;;;;;520664;28;1902;-72
2023/12/04 01:22:21;;;;;;;13.87;11.40;;;;;;;;;;522191;28;808;-72
2023/12/04 01:22:36;;;;;;;13.45;11.30;;;;;;;;;;523815;28;882;-72
2023/12/04 01:22:51;;;;;;;13.97;11.13;;;;;;;;;;524152;28;858;-72
2023/12/04 01:23:07;;;;;;;13.97;11.07;;;;;;;;;;523928;28;925;-71
2023/12/04 01:23:22;;;;;;;13.70;11.48;;;;;;;;;;524110;28;1029;-72
2023/12/04 01:23:37;;;;;;;14.07;11.80;;;;;;;;;;523355;28;1486;-72
2023/12/04 01:23:53;;;;;;;13.48;11.55;;;;;;;;;;523473;28;922;-72
2023/12/04 01:24:08;;;;;;;13.20;11.23;;;;;;;;;;523304;28;917;-71
2023/12/04 01:24:23;;;;;;;13.47;11.10;;;;;;;;;;523782;28;1212;-72
2023/12/04 01:24:39;;;;;;;13.35;11.18;;;;;;;;;;521549;28;1109;-72
2023/12/04 01:24:54;;;;;;;13.03;11.00;;;;;;;;;;521943;28;823;-72
2023/12/04 01:25:10;;;;;;;13.27;11.10;;;;;;;;;;521528;28;982;-72
2023/12/04 01:25:25;;;;;;;13.50;10.90;;;;;;;;;;521890;28;796;-72
2023/12/04 01:25:40;;;;;;;13.07;10.77;;;;;;;;;;521751;28;1048;-71
2023/12/04 01:25:56;;;;;;;13.57;11.02;;;;;;;;;;521796;28;788;-72
2023/12/04 01:26:11;;;;;;;14.43;11.40;;;;;;;;;;521877;28;942;-72
2023/12/04 01:26:27;;;;;;;14.68;11.70;;;;;;;;;;521151;28;1905;-72
2023/12/04 01:26:42;;;;;;;14.87;11.93;;;;;;;;;;523532;28;1070;-71
2023/12/04 01:26:57;;;;;;;14.07;11.87;;;;;;;;;;523946;28;732;-71
2023/12/04 01:27:13;;;;;;;13.75;11.55;;;;;;;;;;523938;28;819;-72
2023/12/04 01:27:28;;;;;;;14.20;11.50;;;;;;;;;;521788;28;1404;-72
2023/12/04 01:27:43;;;;;;;13.97;11.40;;;;;;;;;;521627;28;929;-72
2023/12/04 01:27:58;;;;;;;13.85;11.30;;;;;;;;;;521851;28;866;-72
2023/12/04 01:28:14;;;;;;;14.33;11.50;;;;;;;;;;521877;28;934;-72
2023/12/04 01:28:29;;;;;;;14.17;11.43;;;;;;;;;;521738;28;776;-72
2023/12/04 01:28:45;;;;;;;13.73;11.02;;;;;;;;;;521693;28;1061;-72
2023/12/04 01:29:00;;;;;;;13.90;10.93;;;;;;;;;;521283;28;870;-72
2023/12/04 01:29:15;;;;;;;14.10;11.35;;;;;;;;;;521754;28;819;-71
2023/12/04 01:29:31;;;;;;;13.90;11.30;;;;;;;;;;523128;28;1178;-72
2023/12/04 01:29:47;;;;;;;13.45;11.10;;;;;;;;;;524028;28;1318;-72
2023/12/04 01:30:02;;;;;;;12.87;10.83;;;;;;;;;;523939;28;1412;-72
2023/12/04 01:30:17;;;;;;;14.00;11.30;;;;;;;;;;523781;28;898;-72
2023/12/04 01:30:33;;;;;;;14.33;11.27;;;;;;;;;;523735;28;1056;-72
2023/12/04 01:30:48;;;;;;;13.27;10.70;;;;;;;;;;524056;28;916;-72
2023/12/04 01:31:04;;;;;;;13.35;11.27;;;;;;;;;;523962;28;1608;-71
2023/12/04 01:31:19;;;;;;;14.10;11.53;;;;;;;;;;522461;28;1796;-72
2023/12/04 01:31:34;;;;;;;14.68;11.55;;;;;;;;;;523953;28;1296;-72
2023/12/04 01:31:49;;;;;;;14.60;11.63;;;;;;;;;;523999;28;878;-72
2023/12/04 01:32:05;;;;;;;13.93;11.33;;;;;;;;;;524096;28;979;-72
2023/12/04 01:32:20;;;;;;;14.05;11.32;;;;;;;;;;522564;28;1790;-72
2023/12/04 01:32:36;;;;;;;13.87;11.23;;;;;;;;;;523929;28;926;-72
2023/12/04 01:32:51;;;;;;;13.17;10.90;;;;;;;;;;523841;28;847;-72
2023/12/04 01:33:08;;;;;;;13.10;11.15;;;;;;;;;;524034;28;800;-72
2023/12/04 01:33:23;;;;;;;13.65;11.23;;;;;;;;;;523911;28;863;-72